ePrivacy and GPDR Cookie Consent by Cookie Consent
EmailTwitter


Surface observations / United Kingdom / EGLL (03772)

Regions: Quebec | Canada | USA | Europe | France | UK | Elsewhere
Station
Display
Info & Location for EGLL (03772) | Help decoding METAR

Weather Conditions observed on 2023/02/02 at 18:20 UTC at LONDON/HEATHROW, UK (EGLL)

Sky conditions: overcast.

Temperature: 11.0 Celsius.

Dewpoint: 6.0 Celsius.

Relative Humidity: 71%

Windchill Factor 8.

Winds: West-southwest at 30 km/h or 16 knots.

Mean Sea level Pressure: 102.70 kilopascals.

Horizontal visibility: 6.21 statute miles or 9.94 kilometers.

Height of the Ceiling: 945 metres ( 3100 feet ).

Coded METAR:

EGLL 021820Z AUTO 25016KT 9999 OVC031 11/06 Q1027 NOSIG=